createdAt,value
2022-11-29T00:00:06.991Z,31.17
2022-11-29T00:02:54.031Z,29.37
2022-11-29T00:05:41.227Z,28.20
2022-11-29T00:08:28.230Z,29.47
2022-11-29T00:11:39.283Z,28.93
2022-11-29T00:14:27.849Z,29.17
2022-11-29T00:17:14.907Z,30.13
2022-11-29T00:20:01.852Z,29.80
2022-11-29T00:22:49.014Z,26.77
2022-11-29T00:25:38.488Z,28.40
2022-11-29T00:28:25.452Z,27.67
2022-11-29T00:31:27.211Z,27.17
2022-11-29T00:34:14.267Z,26.90
2022-11-29T00:37:01.265Z,28.30
2022-11-29T00:39:48.310Z,28.47
2022-11-29T00:42:35.228Z,27.57
2022-11-29T00:45:22.198Z,27.17
2022-11-29T00:48:09.226Z,25.93
2022-11-29T00:50:56.286Z,27.90
2022-11-29T00:53:43.289Z,27.23
2022-11-29T00:56:30.345Z,26.60
2022-11-29T00:59:17.424Z,27.67
2022-11-29T01:02:04.478Z,27.93
2022-11-29T01:04:51.548Z,24.90
2022-11-29T01:07:38.508Z,26.47
2022-11-29T01:10:26.455Z,26.87
2022-11-29T01:13:13.428Z,27.60
2022-11-29T01:16:00.617Z,26.07
2022-11-29T01:18:47.837Z,26.70
2022-11-29T01:21:34.833Z,27.67
2022-11-29T01:24:22.386Z,29.43
2022-11-29T01:27:10.148Z,26.53
2022-11-29T01:29:57.211Z,26.33
2022-11-29T01:32:44.230Z,25.53
2022-11-29T01:35:31.140Z,27.43
2022-11-29T01:38:18.797Z,28.07
2022-11-29T01:41:13.170Z,24.97
2022-11-29T01:44:04.772Z,27.03
2022-11-29T01:46:53.382Z,25.90
2022-11-29T01:49:46.860Z,26.97
2022-11-29T01:52:34.049Z,26.83
2022-11-29T01:55:21.403Z,25.23
2022-11-29T01:58:09.307Z,27.23
2022-11-29T02:00:57.719Z,26.70
2022-11-29T02:03:44.802Z,26.27
2022-11-29T02:06:32.316Z,30.50
2022-11-29T02:09:22.313Z,25.33
2022-11-29T02:12:30.751Z,25.77
2022-11-29T02:15:44.074Z,27.13
2022-11-29T02:19:02.071Z,25.97
2022-11-29T02:21:56.596Z,25.90
2022-11-29T02:25:06.786Z,26.60
2022-11-29T02:27:56.749Z,29.23
2022-11-29T02:31:13.202Z,26.77
2022-11-29T02:34:03.004Z,28.00
2022-11-29T02:36:49.873Z,25.97
2022-11-29T02:39:55.055Z,26.10
2022-11-29T02:43:09.560Z,27.53
2022-11-29T02:46:14.981Z,25.67
2022-11-29T02:49:12.217Z,23.97
2022-11-29T02:52:02.957Z,26.20
2022-11-29T02:55:09.562Z,26.73
2022-11-29T02:58:17.168Z,23.60
2022-11-29T03:01:15.873Z,26.53
2022-11-29T03:04:16.507Z,25.93
2022-11-29T03:07:20.244Z,26.03
2022-11-29T03:10:25.812Z,25.10
2022-11-29T03:13:32.973Z,23.77
2022-11-29T03:16:28.933Z,25.50
2022-11-29T03:19:37.708Z,26.43
2022-11-29T03:22:58.101Z,24.30
2022-11-29T03:26:08.952Z,24.83
2022-11-29T03:29:14.478Z,24.23
2022-11-29T03:32:22.778Z,24.20
2022-11-29T03:35:29.728Z,26.00
2022-11-29T03:38:27.123Z,23.33
2022-11-29T03:41:32.928Z,23.80
2022-11-29T03:44:27.935Z,23.83
2022-11-29T03:47:24.296Z,23.97
2022-11-29T03:50:20.847Z,25.97
2022-11-29T03:53:45.563Z,24.03
2022-11-29T03:56:36.780Z,24.10
2022-11-29T03:59:23.670Z,22.60
2022-11-29T04:02:16.749Z,24.83
2022-11-29T04:05:03.653Z,23.57
2022-11-29T04:08:08.789Z,23.27
2022-11-29T04:11:23.007Z,23.13
2022-11-29T04:14:34.703Z,23.23
2022-11-29T04:17:36.601Z,24.17
2022-11-29T04:20:41.216Z,24.97
2022-11-29T04:23:52.396Z,21.63
2022-11-29T04:26:39.269Z,23.73
2022-11-29T04:29:48.093Z,23.80
2022-11-29T04:33:01.341Z,23.87
2022-11-29T04:36:31.168Z,23.80
2022-11-29T04:39:42.992Z,23.97
2022-11-29T04:42:51.207Z,23.90
2022-11-29T04:45:59.200Z,23.43
2022-11-29T04:49:23.835Z,22.40
2022-11-29T04:52:48.492Z,23.63
2022-11-29T04:55:57.312Z,22.50
2022-11-29T04:59:39.790Z,24.27
2022-11-29T05:02:38.329Z,25.73
2022-11-29T05:05:31.375Z,24.20
2022-11-29T05:08:43.532Z,25.67
2022-11-29T05:11:49.569Z,24.13
2022-11-29T05:15:10.464Z,24.67
2022-11-29T05:18:16.648Z,26.10
2022-11-29T05:21:14.369Z,25.47
2022-11-29T05:24:21.570Z,25.77
2022-11-29T05:27:33.488Z,24.73
2022-11-29T05:30:23.841Z,24.97
2022-11-29T05:33:35.217Z,25.37
2022-11-29T05:36:28.309Z,24.47
2022-11-29T05:39:33.953Z,25.77
2022-11-29T05:42:45.967Z,23.77
2022-11-29T05:46:19.281Z,23.30
2022-11-29T05:49:21.327Z,24.07
2022-11-29T05:52:48.268Z,25.00
2022-11-29T05:55:51.883Z,24.30
2022-11-29T05:58:53.031Z,21.97
2022-11-29T06:02:34.475Z,24.13
2022-11-29T06:05:30.539Z,22.87
2022-11-29T06:08:29.539Z,24.23
2022-11-29T06:11:24.263Z,24.07
2022-11-29T06:14:14.024Z,25.70
2022-11-29T06:17:16.121Z,26.37
2022-11-29T06:20:19.228Z,24.40
2022-11-29T06:23:24.190Z,24.20
2022-11-29T06:26:25.359Z,24.97
2022-11-29T06:29:49.504Z,27.03
2022-11-29T06:32:48.999Z,26.97
2022-11-29T06:35:54.212Z,26.57
2022-11-29T06:38:41.720Z,25.60
2022-11-29T06:41:28.968Z,26.50
2022-11-29T06:44:16.321Z,25.93
2022-11-29T06:47:09.029Z,27.70
2022-11-29T06:50:20.185Z,28.63
2022-11-29T06:53:47.769Z,27.57
2022-11-29T06:56:53.532Z,26.47
2022-11-29T06:59:47.624Z,26.27
2022-11-29T07:03:14.161Z,27.00
2022-11-29T07:06:10.307Z,26.83
2022-11-29T07:09:01.738Z,29.47
2022-11-29T07:11:49.016Z,28.67
2022-11-29T07:14:36.385Z,30.17
2022-11-29T07:17:58.707Z,27.57
2022-11-29T07:20:51.631Z,28.57
2022-11-29T07:23:42.369Z,24.87
2022-11-29T07:26:45.738Z,26.40
2022-11-29T07:29:45.907Z,25.57
2022-11-29T07:33:03.551Z,24.37
2022-11-29T07:35:56.439Z,25.10
2022-11-29T07:39:31.128Z,25.10
2022-11-29T07:42:20.966Z,23.27
2022-11-29T07:45:17.804Z,22.10
2022-11-29T07:48:05.591Z,22.07
2022-11-29T07:50:54.231Z,25.90
2022-11-29T07:53:43.344Z,23.57
2022-11-29T07:56:30.352Z,23.93
2022-11-29T07:59:17.567Z,22.63
2022-11-29T08:02:10.149Z,24.00
2022-11-29T08:04:58.618Z,23.43
2022-11-29T08:07:47.410Z,22.47
2022-11-29T08:10:35.584Z,23.30
2022-11-29T08:13:22.721Z,22.43
2022-11-29T08:16:15.181Z,22.10
2022-11-29T08:19:02.339Z,22.50
2022-11-29T08:21:51.187Z,22.87
2022-11-29T08:24:38.262Z,21.33
2022-11-29T08:27:25.375Z,21.67
2022-11-29T08:30:12.741Z,20.47
2022-11-29T08:32:59.776Z,21.70
2022-11-29T08:35:46.781Z,21.57
2022-11-29T08:38:33.780Z,22.27
2022-11-29T08:41:20.818Z,23.90
2022-11-29T08:44:07.990Z,21.17
2022-11-29T08:47:13.485Z,22.63
2022-11-29T08:50:03.561Z,22.13
2022-11-29T08:53:10.090Z,21.33
2022-11-29T08:55:59.934Z,22.47
2022-11-29T08:58:47.501Z,23.37
2022-11-29T09:01:34.614Z,20.90
2022-11-29T09:04:21.680Z,22.60
2022-11-29T09:07:08.651Z,22.70
2022-11-29T09:09:55.656Z,22.53
2022-11-29T09:12:44.260Z,22.03
2022-11-29T09:15:31.258Z,23.47
2022-11-29T09:18:18.197Z,24.50
2022-11-29T09:21:09.888Z,23.27
2022-11-29T09:23:59.855Z,23.73
2022-11-29T09:26:48.515Z,25.83
2022-11-29T09:29:35.608Z,23.60
2022-11-29T09:32:22.715Z,24.03
2022-11-29T09:35:10.723Z,23.47
2022-11-29T09:37:57.797Z,21.47
2022-11-29T09:41:03.259Z,24.33
2022-11-29T09:44:12.016Z,24.37
2022-11-29T09:47:23.340Z,23.70
2022-11-29T09:50:45.825Z,24.97
2022-11-29T09:53:47.703Z,25.70
2022-11-29T09:56:41.361Z,23.47
2022-11-29T09:59:45.805Z,26.53
2022-11-29T10:02:47.974Z,24.87
2022-11-29T10:05:44.288Z,25.73
2022-11-29T10:08:48.605Z,25.17
2022-11-29T10:11:43.286Z,25.63
2022-11-29T10:14:38.977Z,26.70
2022-11-29T10:17:40.818Z,25.70
2022-11-29T10:20:39.699Z,25.07
2022-11-29T10:23:37.256Z,26.20
2022-11-29T10:26:26.502Z,25.43
2022-11-29T10:29:16.587Z,27.50
2022-11-29T10:32:10.430Z,26.87
2022-11-29T10:35:00.687Z,26.10
2022-11-29T10:38:14.517Z,25.60
2022-11-29T10:41:13.597Z,26.00
2022-11-29T10:44:00.587Z,26.93
2022-11-29T10:46:47.891Z,28.43
2022-11-29T10:49:37.287Z,27.20
2022-11-29T10:52:24.295Z,26.27
2022-11-29T10:55:14.980Z,27.07
2022-11-29T10:58:24.700Z,24.67
2022-11-29T11:01:14.202Z,24.70
2022-11-29T11:04:04.486Z,24.17
2022-11-29T11:06:57.082Z,23.90
2022-11-29T11:09:56.424Z,24.53
2022-11-29T11:13:01.465Z,23.90
2022-11-29T11:15:48.482Z,25.17
2022-11-29T11:18:36.963Z,24.50
2022-11-29T11:21:26.015Z,22.73
2022-11-29T11:24:25.255Z,21.60
2022-11-29T11:27:12.313Z,24.77
2022-11-29T11:30:00.664Z,25.03
2022-11-29T11:33:26.680Z,23.17
2022-11-29T11:36:19.610Z,22.80
2022-11-29T11:39:19.576Z,22.33
2022-11-29T11:42:31.536Z,21.93
2022-11-29T11:45:35.116Z,22.60
2022-11-29T11:48:22.743Z,24.17
2022-11-29T11:51:22.497Z,23.10
2022-11-29T11:54:15.523Z,23.87
2022-11-29T11:57:03.414Z,24.03
2022-11-29T11:59:52.816Z,25.30
2022-11-29T12:02:41.035Z,24.20
2022-11-29T12:05:28.221Z,24.00
2022-11-29T12:08:16.083Z,24.27
2022-11-29T12:11:07.785Z,24.73
2022-11-29T12:13:59.332Z,24.93
2022-11-29T12:16:48.965Z,25.63
2022-11-29T12:19:47.096Z,23.80
2022-11-29T12:23:19.572Z,24.70
2022-11-29T12:26:34.534Z,22.27
2022-11-29T12:29:26.065Z,21.23
2022-11-29T12:32:32.197Z,22.07
2022-11-29T12:35:56.650Z,21.57
2022-11-29T12:39:03.649Z,21.50
2022-11-29T12:41:54.324Z,21.30
2022-11-29T12:44:56.428Z,19.60
2022-11-29T12:47:46.297Z,20.07
2022-11-29T12:50:54.910Z,22.30
2022-11-29T12:53:47.773Z,20.37
2022-11-29T12:56:49.540Z,20.17
2022-11-29T13:00:03.837Z,20.03
2022-11-29T13:03:17.939Z,20.73
2022-11-29T13:06:45.250Z,18.80
2022-11-29T13:09:50.860Z,20.07
2022-11-29T13:12:47.849Z,21.30
2022-11-29T13:15:41.148Z,20.03
2022-11-29T13:18:47.162Z,21.63
2022-11-29T13:21:46.330Z,23.47
2022-11-29T13:24:44.544Z,23.40
2022-11-29T13:27:42.449Z,24.23
2022-11-29T13:30:29.733Z,24.97
2022-11-29T13:33:24.853Z,26.43
2022-11-29T13:36:56.669Z,26.90
2022-11-29T13:40:05.545Z,25.83
2022-11-29T13:43:11.254Z,28.27
2022-11-29T13:46:13.582Z,28.20
2022-11-29T13:49:00.683Z,28.63
2022-11-29T13:51:47.871Z,29.20
2022-11-29T13:54:34.944Z,26.00
2022-11-29T13:57:21.908Z,27.07
2022-11-29T14:00:26.913Z,25.40
2022-11-29T14:03:28.737Z,28.80
2022-11-29T14:06:38.225Z,25.67
2022-11-29T14:09:32.893Z,27.83
2022-11-29T14:12:38.439Z,27.57
2022-11-29T14:15:32.294Z,27.00
2022-11-29T14:18:37.618Z,27.77
2022-11-29T14:21:24.560Z,29.03
2022-11-29T14:24:36.171Z,27.27
2022-11-29T14:27:23.050Z,27.27
2022-11-29T14:30:55.707Z,29.53
2022-11-29T14:34:06.954Z,26.63
2022-11-29T14:37:04.917Z,24.70
2022-11-29T14:39:57.535Z,28.67
2022-11-29T14:42:48.704Z,27.37
2022-11-29T14:45:35.678Z,29.33
2022-11-29T14:48:33.107Z,29.23
2022-11-29T14:51:20.987Z,26.23
2022-11-29T14:54:20.062Z,28.60
2022-11-29T14:57:38.236Z,25.43
2022-11-29T15:00:38.436Z,25.73
2022-11-29T15:03:33.114Z,26.53
2022-11-29T15:06:28.038Z,27.37
2022-11-29T15:09:21.014Z,27.10
2022-11-29T15:12:28.488Z,26.97
2022-11-29T15:15:43.029Z,26.63
2022-11-29T15:19:00.629Z,30.77
2022-11-29T15:22:19.567Z,28.30
2022-11-29T15:25:13.654Z,25.27
2022-11-29T15:28:08.704Z,29.97
2022-11-29T15:31:10.344Z,27.63
2022-11-29T15:33:57.349Z,27.27
2022-11-29T15:36:44.457Z,27.07
2022-11-29T15:39:36.630Z,28.60
2022-11-29T15:42:25.312Z,26.67
2022-11-29T15:45:38.464Z,25.40
2022-11-29T15:48:31.201Z,24.17
2022-11-29T15:51:33.842Z,27.33
2022-11-29T15:54:30.993Z,23.53
2022-11-29T15:57:35.159Z,24.57
2022-11-29T16:00:28.200Z,25.70
2022-11-29T16:03:30.046Z,26.13
2022-11-29T16:06:39.966Z,27.77
2022-11-29T16:09:49.428Z,25.50
2022-11-29T16:12:51.918Z,23.73
2022-11-29T16:15:39.618Z,25.30
2022-11-29T16:18:26.661Z,26.20
2022-11-29T16:21:31.227Z,25.63
2022-11-29T16:24:21.950Z,28.17
2022-11-29T16:27:08.988Z,28.53
2022-11-29T16:29:56.110Z,27.77
2022-11-29T16:32:44.268Z,27.70
2022-11-29T16:35:36.419Z,31.50
2022-11-29T16:38:24.351Z,33.43
2022-11-29T16:41:38.935Z,35.23
2022-11-29T16:45:00.227Z,34.30
2022-11-29T16:47:57.935Z,35.20
2022-11-29T16:50:46.171Z,36.00
2022-11-29T16:53:35.894Z,35.20
2022-11-29T16:56:25.541Z,38.20
2022-11-29T16:59:20.879Z,34.93
2022-11-29T17:02:15.850Z,36.40
2022-11-29T17:05:02.925Z,36.90
2022-11-29T17:07:50.848Z,35.13
2022-11-29T17:10:38.418Z,37.23
2022-11-29T17:13:25.395Z,36.40
2022-11-29T17:16:15.456Z,36.07
2022-11-29T17:19:02.532Z,37.40
2022-11-29T17:21:50.629Z,36.33
2022-11-29T17:24:43.532Z,37.17
2022-11-29T17:27:35.522Z,37.17
2022-11-29T17:30:22.579Z,34.40
2022-11-29T17:33:09.570Z,35.87
2022-11-29T17:35:56.548Z,37.40
2022-11-29T17:38:45.320Z,36.50
2022-11-29T17:41:33.120Z,35.17
2022-11-29T17:44:20.067Z,36.30
2022-11-29T17:47:07.016Z,37.27
2022-11-29T17:49:54.008Z,37.43
2022-11-29T17:52:41.624Z,35.93
2022-11-29T17:55:29.779Z,35.93
2022-11-29T17:58:16.867Z,37.40
2022-11-29T18:01:12.599Z,36.03
2022-11-29T18:04:02.047Z,36.50
2022-11-29T18:06:51.848Z,38.07
2022-11-29T18:09:38.980Z,39.73
2022-11-29T18:12:26.188Z,35.50
2022-11-29T18:15:13.376Z,37.23
2022-11-29T18:18:00.524Z,36.40
2022-11-29T18:20:47.641Z,34.67
2022-11-29T18:23:38.966Z,36.97
2022-11-29T18:26:27.316Z,38.60
2022-11-29T18:29:14.890Z,37.43
2022-11-29T18:32:02.035Z,37.63
2022-11-29T18:34:49.340Z,38.87
2022-11-29T18:38:13.021Z,36.47
2022-11-29T18:40:45.886Z,37.17
2022-11-29T18:43:32.991Z,39.93
2022-11-29T18:46:20.102Z,38.43
2022-11-29T18:49:09.146Z,36.30
2022-11-29T18:51:56.267Z,39.47
2022-11-29T18:54:43.555Z,37.47
2022-11-29T18:57:30.943Z,37.00
2022-11-29T19:00:18.276Z,35.90
2022-11-29T19:03:05.407Z,36.03
2022-11-29T19:05:54.407Z,35.53
2022-11-29T19:08:42.186Z,35.13
2022-11-29T19:11:31.683Z,34.67
2022-11-29T19:14:19.653Z,34.93
2022-11-29T19:17:06.857Z,34.80
2022-11-29T19:19:54.274Z,42.23
2022-11-29T19:22:41.337Z,39.27
2022-11-29T19:25:28.460Z,37.13
2022-11-29T19:28:15.963Z,35.50
2022-11-29T19:31:03.149Z,35.07
2022-11-29T19:33:52.848Z,34.20
2022-11-29T19:36:45.249Z,38.03
2022-11-29T19:39:34.529Z,37.17
2022-11-29T19:42:22.319Z,34.90
2022-11-29T19:45:18.687Z,35.37
2022-11-29T19:48:06.054Z,34.13
2022-11-29T19:50:53.133Z,35.77
2022-11-29T19:53:40.345Z,36.47
2022-11-29T19:56:28.839Z,34.10
2022-11-29T19:59:16.023Z,33.90
2022-11-29T20:02:03.141Z,33.60
2022-11-29T20:04:50.686Z,35.57
2022-11-29T20:07:37.929Z,34.60
2022-11-29T20:10:25.879Z,35.83
2022-11-29T20:13:13.069Z,33.80
2022-11-29T20:16:05.139Z,37.03
2022-11-29T20:18:53.269Z,33.60
2022-11-29T20:21:45.846Z,34.97
2022-11-29T20:24:39.041Z,35.30
2022-11-29T20:27:28.527Z,33.67
2022-11-29T20:30:15.842Z,37.00
2022-11-29T20:33:03.842Z,37.97
2022-11-29T20:36:00.330Z,37.70
2022-11-29T20:39:07.669Z,37.30
2022-11-29T20:41:57.714Z,35.43
2022-11-29T20:44:53.949Z,39.23
2022-11-29T20:47:53.330Z,35.63
2022-11-29T20:50:42.655Z,36.33
2022-11-29T20:53:44.325Z,33.80
2022-11-29T20:56:31.385Z,36.03
2022-11-29T20:59:18.433Z,36.07
2022-11-29T21:02:05.513Z,37.03
2022-11-29T21:04:52.516Z,38.60
2022-11-29T21:07:39.624Z,36.60
2022-11-29T21:10:32.677Z,37.77
2022-11-29T21:13:25.293Z,36.07
2022-11-29T21:16:16.132Z,38.00
2022-11-29T21:19:09.555Z,37.03
2022-11-29T21:22:04.465Z,37.23
2022-11-29T21:24:57.498Z,35.53
2022-11-29T21:27:44.681Z,37.03
2022-11-29T21:30:31.836Z,37.43
2022-11-29T21:33:19.029Z,34.27
2022-11-29T21:36:06.928Z,37.50
2022-11-29T21:38:55.267Z,37.13
2022-11-29T21:41:42.746Z,38.00
2022-11-29T21:44:29.666Z,35.67
2022-11-29T21:47:16.662Z,34.83
2022-11-29T21:50:04.064Z,35.73
2022-11-29T21:52:52.553Z,35.50
2022-11-29T21:55:39.462Z,36.57
2022-11-29T21:58:28.800Z,37.83
2022-11-29T22:01:18.123Z,36.53
2022-11-29T22:04:05.175Z,37.47
2022-11-29T22:06:52.193Z,37.80
2022-11-29T22:09:39.284Z,37.27
2022-11-29T22:12:34.089Z,34.13
2022-11-29T22:15:24.982Z,36.30
2022-11-29T22:18:12.889Z,35.87
2022-11-29T22:21:08.190Z,37.30
2022-11-29T22:23:55.372Z,36.53
2022-11-29T22:26:44.452Z,37.97
2022-11-29T22:29:31.659Z,33.73
2022-11-29T22:32:18.751Z,36.77
2022-11-29T22:35:06.073Z,37.43
2022-11-29T22:37:52.994Z,36.90
2022-11-29T22:40:40.656Z,36.80
2022-11-29T22:43:29.272Z,36.27
2022-11-29T22:46:21.757Z,35.70
2022-11-29T22:49:09.247Z,36.60
2022-11-29T22:51:56.581Z,37.03
2022-11-29T22:54:43.686Z,34.90
2022-11-29T22:57:30.984Z,34.10
2022-11-29T23:00:18.264Z,36.00
2022-11-29T23:03:05.327Z,34.27
2022-11-29T23:05:52.298Z,35.77
2022-11-29T23:08:40.639Z,33.67
2022-11-29T23:11:30.366Z,33.30
2022-11-29T23:14:18.305Z,35.53
2022-11-29T23:17:05.579Z,32.30
2022-11-29T23:19:52.787Z,32.63
2022-11-29T23:22:39.869Z,31.43
2022-11-29T23:25:26.959Z,33.37
2022-11-29T23:28:14.495Z,35.07
2022-11-29T23:31:04.504Z,34.93
2022-11-29T23:33:51.887Z,35.87
2022-11-29T23:36:39.134Z,34.97
2022-11-29T23:39:27.203Z,34.93
2022-11-29T23:42:14.610Z,34.90
2022-11-29T23:45:01.728Z,33.03
2022-11-29T23:47:49.092Z,33.03
2022-11-29T23:50:36.379Z,33.67
2022-11-29T23:53:23.601Z,31.40
2022-11-29T23:56:17.237Z,35.13
2022-11-29T23:59:04.544Z,31.73
